createdAt,value
2023-01-09T00:00:00.905Z,83.23
2023-01-09T00:00:11.187Z,83.23
2023-01-09T00:00:21.455Z,83.23
2023-01-09T00:00:31.718Z,83.23
2023-01-09T00:00:42.063Z,83.23
2023-01-09T00:00:52.292Z,83.23
2023-01-09T00:01:02.546Z,83.33
2023-01-09T00:01:12.770Z,83.33
2023-01-09T00:01:23.000Z,83.23
2023-01-09T00:01:33.246Z,83.23
2023-01-09T00:01:43.472Z,83.23
2023-01-09T00:01:53.733Z,83.23
2023-01-09T00:02:04.029Z,83.23
2023-01-09T00:02:14.324Z,83.23
2023-01-09T00:02:24.587Z,83.23
2023-01-09T00:02:34.859Z,83.13
2023-01-09T00:02:45.134Z,83.13
2023-01-09T00:02:55.353Z,83.13
2023-01-09T00:03:05.591Z,83.13
2023-01-09T00:03:15.853Z,83.13
2023-01-09T00:03:26.073Z,83.13
2023-01-09T00:03:36.360Z,83.13
2023-01-09T00:03:46.639Z,83.13
2023-01-09T00:03:56.888Z,83.13
2023-01-09T00:04:07.201Z,83.13
2023-01-09T00:04:17.483Z,83.13
2023-01-09T00:04:27.704Z,83.13
2023-01-09T00:04:37.959Z,83.13
2023-01-09T00:04:48.186Z,83.13
2023-01-09T00:04:58.445Z,83.13
2023-01-09T00:05:08.674Z,83.13
2023-01-09T00:05:18.915Z,83.13
2023-01-09T00:05:29.150Z,83.13
2023-01-09T00:05:39.404Z,83.13
2023-01-09T00:05:49.659Z,83.13
2023-01-09T00:05:59.883Z,83.03
2023-01-09T00:06:10.140Z,83.03
2023-01-09T00:06:20.359Z,83.03
2023-01-09T00:06:30.606Z,83.03
2023-01-09T00:06:40.843Z,83.03
2023-01-09T00:06:51.092Z,83.03
2023-01-09T00:07:01.348Z,83.03
2023-01-09T00:07:11.613Z,83.17
2023-01-09T00:07:21.827Z,83.13
2023-01-09T00:07:32.067Z,83.17
2023-01-09T00:07:42.326Z,83.17
2023-01-09T00:07:52.572Z,83.17
2023-01-09T00:08:02.825Z,83.06
2023-01-09T00:08:13.075Z,83.06
2023-01-09T00:08:23.313Z,83.17
2023-01-09T00:08:33.544Z,83.17
2023-01-09T00:08:43.815Z,83.17
2023-01-09T00:08:54.047Z,83.17
2023-01-09T00:09:04.282Z,83.17
2023-01-09T00:09:14.531Z,83.17
2023-01-09T00:09:24.801Z,83.17
2023-01-09T00:09:35.017Z,83.06
2023-01-09T00:09:45.263Z,83.06
2023-01-09T00:09:55.487Z,83.06
2023-01-09T00:10:06.453Z,83.06
2023-01-09T00:10:16.086Z,83.06
2023-01-09T00:10:26.317Z,83.06
2023-01-09T00:10:36.538Z,83.06
2023-01-09T00:10:46.791Z,83.06
2023-01-09T00:10:57.021Z,83.06
2023-01-09T00:11:07.260Z,83.06
2023-01-09T00:11:17.509Z,83.17
2023-01-09T00:11:27.757Z,83.17
2023-01-09T00:11:37.991Z,83.06
2023-01-09T00:11:48.273Z,83.06
2023-01-09T00:11:58.490Z,83.06
2023-01-09T00:12:08.721Z,83.06
2023-01-09T00:12:18.972Z,83.06
2023-01-09T00:12:29.229Z,82.96
2023-01-09T00:12:39.428Z,82.96
2023-01-09T00:12:49.698Z,82.96
2023-01-09T00:12:59.976Z,82.96
2023-01-09T00:13:10.219Z,82.96
2023-01-09T00:13:20.457Z,82.96
2023-01-09T00:13:30.696Z,82.96
2023-01-09T00:13:40.991Z,82.96
2023-01-09T00:13:51.189Z,82.96
2023-01-09T00:14:01.429Z,82.96
2023-01-09T00:14:11.662Z,82.96
2023-01-09T00:14:21.915Z,82.96
2023-01-09T00:14:32.159Z,82.96
2023-01-09T00:14:42.406Z,82.96
2023-01-09T00:14:52.658Z,82.96
2023-01-09T00:15:02.888Z,82.96
2023-01-09T00:15:13.115Z,82.96
2023-01-09T00:15:23.357Z,82.96
2023-01-09T00:15:33.584Z,82.96
2023-01-09T00:15:43.853Z,82.96
2023-01-09T00:15:54.081Z,82.96
2023-01-09T00:16:04.302Z,82.96
2023-01-09T00:16:14.550Z,82.96
2023-01-09T00:16:24.784Z,82.96
2023-01-09T00:16:35.058Z,82.96
2023-01-09T00:16:45.312Z,82.96
2023-01-09T00:16:55.648Z,82.96
2023-01-09T00:17:05.987Z,82.96
2023-01-09T00:17:16.230Z,82.96
2023-01-09T00:17:26.471Z,82.96
2023-01-09T00:17:36.713Z,82.86
2023-01-09T00:17:46.948Z,82.86
2023-01-09T00:17:57.188Z,82.86
2023-01-09T00:18:07.421Z,82.75
2023-01-09T00:18:17.667Z,82.75
2023-01-09T00:18:27.891Z,82.75
2023-01-09T00:18:38.148Z,82.75
2023-01-09T00:18:48.398Z,82.75
2023-01-09T00:18:58.623Z,82.75
2023-01-09T00:19:08.876Z,82.75
2023-01-09T00:19:19.109Z,82.75
2023-01-09T00:19:29.351Z,82.75
2023-01-09T00:19:39.604Z,82.65
2023-01-09T00:19:49.858Z,82.65
2023-01-09T00:20:00.159Z,82.65
2023-01-09T00:20:10.380Z,82.65
2023-01-09T00:20:20.631Z,82.65
2023-01-09T00:20:30.869Z,82.65
2023-01-09T00:20:41.121Z,82.65
2023-01-09T00:20:51.366Z,82.65
2023-01-09T00:21:01.614Z,82.65
2023-01-09T00:21:11.855Z,82.65
2023-01-09T00:21:22.082Z,82.65
2023-01-09T00:21:32.324Z,82.65
2023-01-09T00:21:42.573Z,82.65
2023-01-09T00:21:52.807Z,82.65
2023-01-09T00:22:03.055Z,82.65
2023-01-09T00:22:13.305Z,82.65
2023-01-09T00:22:23.524Z,82.65
2023-01-09T00:22:33.764Z,82.55
2023-01-09T00:22:44.009Z,82.65
2023-01-09T00:22:54.262Z,82.55
2023-01-09T00:23:04.531Z,82.55
2023-01-09T00:23:14.743Z,82.55
2023-01-09T00:23:25.002Z,82.55
2023-01-09T00:23:35.230Z,82.55
2023-01-09T00:23:45.491Z,82.55
2023-01-09T00:23:55.734Z,82.55
2023-01-09T00:24:05.980Z,82.55
2023-01-09T00:24:16.223Z,82.55
2023-01-09T00:24:26.468Z,82.55
2023-01-09T00:24:36.702Z,82.55
2023-01-09T00:24:46.938Z,82.55
2023-01-09T00:24:57.210Z,82.45
2023-01-09T00:25:07.466Z,82.45
2023-01-09T00:25:17.688Z,82.45
2023-01-09T00:25:27.933Z,82.45
2023-01-09T00:25:38.178Z,82.45
2023-01-09T00:25:48.428Z,82.45
2023-01-09T00:25:58.682Z,82.45
2023-01-09T00:26:08.959Z,82.45
2023-01-09T00:26:19.171Z,82.45
2023-01-09T00:26:29.443Z,82.45
2023-01-09T00:26:39.681Z,82.45
2023-01-09T00:26:49.935Z,82.55
2023-01-09T00:27:00.193Z,82.55
2023-01-09T00:27:10.435Z,82.55
2023-01-09T00:27:20.671Z,82.55
2023-01-09T00:27:30.918Z,82.55
2023-01-09T00:27:41.151Z,82.55
2023-01-09T00:27:51.400Z,82.45
2023-01-09T00:28:01.636Z,82.45
2023-01-09T00:28:11.884Z,82.45
2023-01-09T00:28:22.113Z,82.45
2023-01-09T00:28:32.387Z,82.45
2023-01-09T00:28:42.618Z,82.45
2023-01-09T00:28:52.839Z,82.45
2023-01-09T00:29:03.068Z,82.45
2023-01-09T00:29:13.333Z,82.45
2023-01-09T00:29:23.545Z,82.55
2023-01-09T00:29:33.825Z,82.55
2023-01-09T00:29:44.035Z,82.55
2023-01-09T00:29:54.278Z,82.55
2023-01-09T00:30:04.519Z,82.45
2023-01-09T00:30:14.768Z,82.45
2023-01-09T00:30:25.093Z,82.45
2023-01-09T00:30:35.377Z,82.45
2023-01-09T00:30:45.672Z,82.45
2023-01-09T00:30:55.976Z,82.45
2023-01-09T00:31:06.285Z,82.45
2023-01-09T00:31:16.505Z,82.34
2023-01-09T00:31:26.756Z,82.34
2023-01-09T00:31:36.999Z,82.34
2023-01-09T00:31:47.233Z,82.34
2023-01-09T00:31:57.482Z,82.34
2023-01-09T00:32:07.733Z,82.34
2023-01-09T00:32:17.956Z,82.45
2023-01-09T00:32:28.236Z,82.45
2023-01-09T00:32:38.455Z,82.34
2023-01-09T00:32:48.671Z,82.34
2023-01-09T00:32:58.922Z,82.34
2023-01-09T00:33:09.171Z,82.34
2023-01-09T00:33:19.406Z,82.24
2023-01-09T00:33:29.642Z,82.24
2023-01-09T00:33:39.884Z,82.24
2023-01-09T00:33:50.140Z,82.24
2023-01-09T00:34:00.405Z,82.24
2023-01-09T00:34:10.661Z,82.34
2023-01-09T00:34:20.858Z,82.34
2023-01-09T00:34:31.095Z,82.24
2023-01-09T00:34:41.349Z,82.24
2023-01-09T00:34:51.583Z,82.24
2023-01-09T00:35:01.846Z,82.24
2023-01-09T00:35:12.061Z,82.24
2023-01-09T00:35:22.305Z,82.24
2023-01-09T00:35:32.569Z,82.24
2023-01-09T00:35:42.797Z,82.24
2023-01-09T00:35:53.032Z,82.24
2023-01-09T00:36:03.295Z,82.24
2023-01-09T00:36:13.533Z,82.24
2023-01-09T00:36:23.755Z,82.24
2023-01-09T00:36:34.009Z,82.24
2023-01-09T00:36:44.272Z,82.24
2023-01-09T00:36:54.526Z,82.24
2023-01-09T00:37:04.756Z,82.24
2023-01-09T00:37:14.999Z,82.24
2023-01-09T00:37:25.254Z,82.24
2023-01-09T00:37:35.539Z,82.24
2023-01-09T00:37:45.731Z,82.24
2023-01-09T00:37:55.971Z,82.24
2023-01-09T00:38:06.223Z,82.24
2023-01-09T00:38:16.445Z,82.24
2023-01-09T00:38:26.677Z,82.24
2023-01-09T00:38:36.924Z,82.24
2023-01-09T00:38:47.151Z,82.24
2023-01-09T00:38:57.402Z,82.24
2023-01-09T00:39:07.643Z,82.24
2023-01-09T00:39:17.884Z,82.24
2023-01-09T00:39:28.119Z,82.14
2023-01-09T00:39:38.360Z,82.14
2023-01-09T00:39:48.622Z,82.14
2023-01-09T00:39:58.839Z,82.14
2023-01-09T00:40:09.069Z,82.17
2023-01-09T00:40:19.317Z,82.14
2023-01-09T00:40:29.545Z,82.14
2023-01-09T00:40:39.794Z,82.14
2023-01-09T00:40:50.025Z,82.14
2023-01-09T00:41:00.288Z,82.14
2023-01-09T00:41:10.505Z,82.14
2023-01-09T00:41:20.750Z,82.17
2023-01-09T00:41:31.000Z,82.14
2023-01-09T00:41:41.245Z,82.14
2023-01-09T00:41:51.483Z,82.14
2023-01-09T00:42:01.841Z,82.14
2023-01-09T00:42:12.080Z,82.14
2023-01-09T00:42:22.294Z,82.14
2023-01-09T00:42:32.560Z,82.17
2023-01-09T00:42:42.790Z,82.14
2023-01-09T00:42:53.037Z,82.14
2023-01-09T00:43:03.263Z,82.14
2023-01-09T00:43:13.516Z,82.17
2023-01-09T00:43:23.740Z,82.17
2023-01-09T00:43:34.021Z,82.03
2023-01-09T00:43:44.234Z,82.03
2023-01-09T00:43:54.489Z,82.03
2023-01-09T00:44:04.701Z,82.03
2023-01-09T00:44:14.952Z,82.03
2023-01-09T00:44:25.186Z,82.03
2023-01-09T00:44:35.416Z,82.07
2023-01-09T00:44:45.650Z,82.03
2023-01-09T00:44:55.913Z,82.03
2023-01-09T00:45:06.132Z,82.03
2023-01-09T00:45:16.370Z,82.03
2023-01-09T00:45:26.613Z,81.93
2023-01-09T00:45:36.884Z,81.96
2023-01-09T00:45:47.152Z,81.96
2023-01-09T00:45:57.369Z,81.96
2023-01-09T00:46:07.692Z,81.93
2023-01-09T00:46:18.001Z,81.96
2023-01-09T00:46:28.233Z,81.96
2023-01-09T00:46:38.505Z,81.96
2023-01-09T00:46:48.751Z,81.96
2023-01-09T00:46:58.989Z,81.96
2023-01-09T00:47:09.210Z,81.96
2023-01-09T00:47:19.465Z,81.96
2023-01-09T00:47:29.692Z,81.96
2023-01-09T00:47:39.924Z,81.93
2023-01-09T00:47:50.187Z,81.93
2023-01-09T00:48:00.416Z,81.96
2023-01-09T00:48:10.671Z,81.96
2023-01-09T00:48:20.885Z,81.96
2023-01-09T00:48:31.140Z,81.93
2023-01-09T00:48:41.376Z,81.93
2023-01-09T00:48:51.645Z,81.96
2023-01-09T00:49:01.859Z,81.96
2023-01-09T00:49:12.091Z,81.96
2023-01-09T00:49:22.329Z,81.86
2023-01-09T00:49:32.574Z,81.86
2023-01-09T00:49:42.805Z,81.86
2023-01-09T00:49:53.058Z,81.86
2023-01-09T00:50:03.283Z,81.86
2023-01-09T00:50:13.530Z,81.86
2023-01-09T00:50:23.765Z,81.86
2023-01-09T00:50:33.990Z,81.86
2023-01-09T00:50:44.239Z,81.86
2023-01-09T00:50:54.493Z,81.86
2023-01-09T00:51:04.737Z,81.86
2023-01-09T00:51:14.973Z,81.86
2023-01-09T00:51:25.238Z,81.86
2023-01-09T00:51:35.457Z,81.86
2023-01-09T00:51:45.708Z,81.86
2023-01-09T00:51:55.968Z,81.86
2023-01-09T00:52:06.206Z,81.86
2023-01-09T00:52:16.445Z,81.86
2023-01-09T00:52:26.665Z,81.86
2023-01-09T00:52:36.918Z,81.86
2023-01-09T00:52:47.164Z,81.86
2023-01-09T00:52:57.442Z,81.86
2023-01-09T00:53:07.672Z,81.76
2023-01-09T00:53:17.926Z,81.76
2023-01-09T00:53:28.153Z,81.76
2023-01-09T00:53:38.377Z,81.76
2023-01-09T00:53:48.639Z,81.76
2023-01-09T00:53:58.881Z,81.76
2023-01-09T00:54:09.116Z,81.76
2023-01-09T00:54:19.353Z,81.76
2023-01-09T00:54:29.615Z,81.76
2023-01-09T00:54:39.864Z,81.76
2023-01-09T00:54:50.064Z,81.76
2023-01-09T00:55:00.322Z,81.76
2023-01-09T00:55:10.555Z,81.76
2023-01-09T00:55:20.788Z,81.76
2023-01-09T00:55:31.053Z,81.76
2023-01-09T00:55:41.322Z,81.76
2023-01-09T00:55:51.565Z,81.76
2023-01-09T00:56:01.784Z,81.76
2023-01-09T00:56:12.059Z,81.76
2023-01-09T00:56:22.272Z,81.76
2023-01-09T00:56:32.521Z,81.76
2023-01-09T00:56:42.777Z,81.76
2023-01-09T00:56:53.043Z,81.76
2023-01-09T00:57:03.250Z,81.76
2023-01-09T00:57:13.498Z,81.76
2023-01-09T00:57:23.727Z,81.76
2023-01-09T00:57:33.965Z,81.76
2023-01-09T00:57:44.203Z,81.66
2023-01-09T00:57:54.438Z,81.76
2023-01-09T00:58:04.674Z,81.76
2023-01-09T00:58:14.922Z,81.66
2023-01-09T00:58:25.180Z,81.66
2023-01-09T00:58:35.430Z,81.66
2023-01-09T00:58:45.646Z,81.66
2023-01-09T00:58:55.887Z,81.66
2023-01-09T00:59:06.142Z,81.66
2023-01-09T00:59:16.411Z,81.66
2023-01-09T00:59:26.646Z,81.66
2023-01-09T00:59:36.926Z,81.66
2023-01-09T00:59:47.152Z,81.66
2023-01-09T00:59:57.392Z,81.66
2023-01-09T01:00:07.633Z,81.66
2023-01-09T01:00:17.864Z,81.66
2023-01-09T01:00:28.111Z,81.66
2023-01-09T01:00:38.377Z,81.66
2023-01-09T01:00:48.645Z,81.66
2023-01-09T01:00:59.030Z,81.66
2023-01-09T01:01:09.416Z,81.66
2023-01-09T01:01:19.583Z,81.66
2023-01-09T01:01:29.922Z,81.66
2023-01-09T01:01:40.267Z,81.66
2023-01-09T01:01:50.547Z,81.66
2023-01-09T01:02:01.083Z,81.56
2023-01-09T01:02:11.376Z,81.56
2023-01-09T01:02:21.692Z,81.56
2023-01-09T01:02:31.912Z,81.56
2023-01-09T01:02:42.008Z,81.56
2023-01-09T01:02:52.269Z,81.56
2023-01-09T01:03:02.561Z,81.66
2023-01-09T01:03:12.770Z,81.56
2023-01-09T01:03:23.022Z,81.56
2023-01-09T01:03:33.282Z,81.56
2023-01-09T01:03:43.510Z,81.56
2023-01-09T01:03:53.770Z,81.56
2023-01-09T01:04:04.008Z,81.56
2023-01-09T01:04:14.252Z,81.56
2023-01-09T01:04:24.515Z,81.56
2023-01-09T01:04:34.740Z,81.56
2023-01-09T01:04:45.007Z,81.56
2023-01-09T01:04:55.249Z,81.56
2023-01-09T01:05:05.485Z,81.56
2023-01-09T01:05:15.725Z,81.56
2023-01-09T01:05:25.970Z,81.56
2023-01-09T01:05:36.220Z,81.56
2023-01-09T01:05:46.466Z,81.56
2023-01-09T01:05:56.728Z,81.56
2023-01-09T01:06:06.935Z,81.56
2023-01-09T01:06:17.196Z,81.56
2023-01-09T01:06:27.431Z,81.56
2023-01-09T01:06:37.662Z,81.56
2023-01-09T01:06:47.894Z,81.56
2023-01-09T01:06:58.132Z,81.56
2023-01-09T01:07:08.370Z,81.56
2023-01-09T01:07:18.632Z,81.56
2023-01-09T01:07:28.856Z,81.56
2023-01-09T01:07:39.144Z,81.56
2023-01-09T01:07:49.362Z,81.56
2023-01-09T01:07:59.700Z,81.56
2023-01-09T01:08:09.892Z,81.56
2023-01-09T01:08:20.138Z,81.56
2023-01-09T01:08:30.366Z,81.56
2023-01-09T01:08:40.617Z,81.56
2023-01-09T01:08:50.854Z,81.56
2023-01-09T01:09:01.091Z,81.56
2023-01-09T01:09:11.345Z,81.56
2023-01-09T01:09:21.655Z,81.56
2023-01-09T01:09:31.892Z,81.56
2023-01-09T01:09:42.130Z,81.56
2023-01-09T01:09:52.388Z,81.56
2023-01-09T01:10:02.609Z,81.56
2023-01-09T01:10:12.844Z,81.56
2023-01-09T01:10:23.077Z,81.56
2023-01-09T01:10:33.317Z,81.56
2023-01-09T01:10:43.581Z,81.56
2023-01-09T01:10:53.811Z,81.56
2023-01-09T01:11:04.035Z,81.56
2023-01-09T01:11:14.274Z,81.56
2023-01-09T01:11:24.528Z,81.56
2023-01-09T01:11:34.750Z,81.56
2023-01-09T01:11:44.980Z,81.56
2023-01-09T01:11:55.230Z,81.56
2023-01-09T01:12:05.465Z,81.56
2023-01-09T01:12:15.702Z,81.56
2023-01-09T01:12:25.949Z,81.45
2023-01-09T01:12:36.192Z,81.56
2023-01-09T01:12:46.426Z,81.56
2023-01-09T01:12:56.683Z,81.56
2023-01-09T01:13:07.022Z,81.56
2023-01-09T01:13:17.300Z,81.56
2023-01-09T01:13:27.505Z,81.56
2023-01-09T01:13:37.751Z,81.56
2023-01-09T01:13:47.980Z,81.56
2023-01-09T01:13:58.232Z,81.56
2023-01-09T01:14:08.463Z,81.56
2023-01-09T01:14:18.768Z,81.56
2023-01-09T01:14:29.012Z,81.66
2023-01-09T01:14:39.235Z,81.66
2023-01-09T01:14:49.491Z,81.66
2023-01-09T01:14:59.716Z,81.66
2023-01-09T01:15:09.957Z,81.66
2023-01-09T01:15:20.226Z,81.66
2023-01-09T01:15:30.512Z,81.56
2023-01-09T01:15:40.753Z,81.66
2023-01-09T01:15:51.011Z,81.66
2023-01-09T01:16:01.258Z,81.66
2023-01-09T01:16:11.474Z,81.66
2023-01-09T01:16:21.771Z,81.66
2023-01-09T01:16:32.021Z,81.66
2023-01-09T01:16:42.265Z,81.66
2023-01-09T01:16:52.538Z,81.66
2023-01-09T01:17:02.783Z,81.66
2023-01-09T01:17:13.006Z,81.66
2023-01-09T01:17:23.261Z,81.76
2023-01-09T01:17:33.508Z,81.76
2023-01-09T01:17:43.754Z,81.76
2023-01-09T01:17:54.017Z,81.76
2023-01-09T01:18:04.245Z,81.76
2023-01-09T01:18:14.494Z,81.76
2023-01-09T01:18:24.728Z,81.76
2023-01-09T01:18:34.982Z,81.66
2023-01-09T01:18:45.230Z,81.66
2023-01-09T01:18:55.463Z,81.66
2023-01-09T01:19:05.754Z,81.66
2023-01-09T01:19:15.971Z,81.66
2023-01-09T01:19:26.222Z,81.66
2023-01-09T01:19:36.477Z,81.66
2023-01-09T01:19:46.698Z,81.66
2023-01-09T01:19:56.961Z,81.66
2023-01-09T01:20:07.230Z,81.66
2023-01-09T01:20:17.452Z,81.66
2023-01-09T01:20:27.692Z,81.76
2023-01-09T01:20:37.946Z,81.76
2023-01-09T01:20:48.191Z,81.76
2023-01-09T01:20:58.415Z,81.76
2023-01-09T01:21:08.666Z,81.76
2023-01-09T01:21:18.916Z,81.76
2023-01-09T01:21:29.146Z,81.76
2023-01-09T01:21:39.371Z,81.76
2023-01-09T01:21:49.618Z,81.76
2023-01-09T01:21:59.854Z,81.76
2023-01-09T01:22:10.088Z,81.76
2023-01-09T01:22:20.332Z,81.66
2023-01-09T01:22:30.576Z,81.66
2023-01-09T01:22:40.803Z,81.66
2023-01-09T01:22:51.060Z,81.66
2023-01-09T01:23:01.282Z,81.66
2023-01-09T01:23:11.527Z,81.66
2023-01-09T01:23:21.763Z,81.66
2023-01-09T01:23:31.993Z,81.76
2023-01-09T01:23:42.241Z,81.76
2023-01-09T01:23:52.500Z,81.76
2023-01-09T01:24:02.749Z,81.66
2023-01-09T01:24:12.970Z,81.66
2023-01-09T01:24:23.240Z,81.66
2023-01-09T01:24:33.443Z,81.66
2023-01-09T01:24:43.682Z,81.66
2023-01-09T01:24:53.925Z,81.66
2023-01-09T01:25:04.150Z,81.66
2023-01-09T01:25:14.393Z,81.66
2023-01-09T01:25:24.623Z,81.66
2023-01-09T01:25:34.860Z,81.66
2023-01-09T01:25:45.117Z,81.66
2023-01-09T01:25:55.373Z,81.66
2023-01-09T01:26:05.604Z,81.66
2023-01-09T01:26:15.843Z,81.66
2023-01-09T01:26:26.075Z,81.66
2023-01-09T01:26:36.325Z,81.66
2023-01-09T01:26:46.541Z,81.66
2023-01-09T01:26:56.792Z,81.66
2023-01-09T01:27:07.027Z,81.66
2023-01-09T01:27:17.282Z,81.66
2023-01-09T01:27:27.511Z,81.66
2023-01-09T01:27:37.752Z,81.66
2023-01-09T01:27:47.998Z,81.66
2023-01-09T01:27:58.249Z,81.66
2023-01-09T01:28:08.473Z,81.66
2023-01-09T01:28:18.701Z,81.66
2023-01-09T01:28:28.958Z,81.66
2023-01-09T01:28:39.209Z,81.66
2023-01-09T01:28:49.459Z,81.59
2023-01-09T01:28:59.721Z,81.56
2023-01-09T01:29:09.941Z,81.56
2023-01-09T01:29:20.209Z,81.59
2023-01-09T01:29:30.429Z,81.56
2023-01-09T01:29:40.692Z,81.56
2023-01-09T01:29:50.934Z,81.56
2023-01-09T01:30:01.154Z,81.56
2023-01-09T01:30:11.388Z,81.59
2023-01-09T01:30:21.642Z,81.56
2023-01-09T01:30:31.887Z,81.56
2023-01-09T01:30:42.184Z,81.56
2023-01-09T01:30:52.417Z,81.45
2023-01-09T01:31:02.681Z,81.49
2023-01-09T01:31:12.938Z,81.49
2023-01-09T01:31:23.182Z,81.45
2023-01-09T01:31:33.433Z,81.45
2023-01-09T01:31:43.667Z,81.45
2023-01-09T01:31:53.922Z,81.49
2023-01-09T01:32:04.157Z,81.49
2023-01-09T01:32:14.395Z,81.45
2023-01-09T01:32:24.633Z,81.49
2023-01-09T01:32:34.909Z,81.45
2023-01-09T01:32:45.137Z,81.49
2023-01-09T01:32:55.368Z,81.49
2023-01-09T01:33:05.637Z,81.49
2023-01-09T01:33:15.865Z,81.49
2023-01-09T01:33:26.123Z,81.49
2023-01-09T01:33:36.363Z,81.49
2023-01-09T01:33:46.611Z,81.49
2023-01-09T01:33:56.855Z,81.49
2023-01-09T01:34:07.099Z,81.49
2023-01-09T01:34:17.339Z,81.49
2023-01-09T01:34:27.566Z,81.38
2023-01-09T01:34:37.794Z,81.38
2023-01-09T01:34:48.043Z,81.38
2023-01-09T01:34:58.309Z,81.38
2023-01-09T01:35:08.599Z,81.38
2023-01-09T01:35:18.813Z,81.38
2023-01-09T01:35:29.061Z,81.28
2023-01-09T01:35:39.297Z,81.28
2023-01-09T01:35:49.541Z,81.38
2023-01-09T01:35:59.805Z,81.38
2023-01-09T01:36:10.051Z,81.38
2023-01-09T01:36:20.293Z,81.38
2023-01-09T01:36:30.549Z,81.38
2023-01-09T01:36:40.816Z,81.38
2023-01-09T01:36:51.057Z,81.38
2023-01-09T01:37:01.303Z,81.38
2023-01-09T01:37:11.541Z,81.28
2023-01-09T01:37:21.817Z,81.28
2023-01-09T01:37:32.016Z,81.28
2023-01-09T01:37:42.271Z,81.28
2023-01-09T01:37:52.493Z,81.28
2023-01-09T01:38:02.741Z,81.28
2023-01-09T01:38:12.980Z,81.28
2023-01-09T01:38:23.222Z,81.28
2023-01-09T01:38:33.464Z,81.28
2023-01-09T01:38:43.719Z,81.28
2023-01-09T01:38:53.966Z,81.28
2023-01-09T01:39:04.212Z,81.18
2023-01-09T01:39:14.434Z,81.18
2023-01-09T01:39:24.684Z,81.18
2023-01-09T01:39:34.915Z,81.18
2023-01-09T01:39:45.177Z,81.18
2023-01-09T01:39:55.441Z,81.07
2023-01-09T01:40:05.659Z,81.07
2023-01-09T01:40:15.914Z,81.07
2023-01-09T01:40:26.137Z,81.07
2023-01-09T01:40:36.369Z,81.07
2023-01-09T01:40:46.621Z,81.07
2023-01-09T01:40:56.868Z,81.07
2023-01-09T01:41:07.165Z,81.07
2023-01-09T01:41:17.362Z,81.07
2023-01-09T01:41:27.609Z,80.97
2023-01-09T01:41:37.869Z,81.07
2023-01-09T01:41:48.115Z,81.07
2023-01-09T01:41:58.342Z,81.07
2023-01-09T01:42:08.577Z,80.97
2023-01-09T01:42:18.811Z,80.97
2023-01-09T01:42:29.061Z,80.97
2023-01-09T01:42:39.288Z,80.97
2023-01-09T01:42:49.544Z,80.97
2023-01-09T01:42:59.788Z,80.97
2023-01-09T01:43:10.021Z,80.97
2023-01-09T01:43:20.260Z,80.97
2023-01-09T01:43:30.520Z,80.97
2023-01-09T01:43:40.745Z,80.97
2023-01-09T01:43:51.039Z,80.97
2023-01-09T01:44:01.272Z,80.97
2023-01-09T01:44:11.486Z,80.97
2023-01-09T01:44:21.745Z,80.97
2023-01-09T01:44:32.031Z,80.87
2023-01-09T01:44:42.251Z,80.87
2023-01-09T01:44:52.517Z,80.87
2023-01-09T01:45:02.764Z,80.87
2023-01-09T01:45:12.977Z,80.87
2023-01-09T01:45:23.208Z,80.87
2023-01-09T01:45:33.465Z,80.87
2023-01-09T01:45:43.723Z,80.87
2023-01-09T01:45:54.046Z,80.87
2023-01-09T01:46:04.326Z,80.87
2023-01-09T01:46:14.640Z,80.87
2023-01-09T01:46:24.858Z,80.87
2023-01-09T01:46:35.114Z,80.87
2023-01-09T01:46:45.357Z,80.87
2023-01-09T01:46:55.606Z,80.87
2023-01-09T01:47:05.840Z,80.87
2023-01-09T01:47:16.083Z,80.87
2023-01-09T01:47:26.315Z,80.76
2023-01-09T01:47:36.543Z,80.76
2023-01-09T01:47:46.776Z,80.76
2023-01-09T01:47:57.043Z,80.76
2023-01-09T01:48:07.259Z,80.76
2023-01-09T01:48:17.498Z,80.76
2023-01-09T01:48:27.768Z,80.76
2023-01-09T01:48:37.972Z,80.76
2023-01-09T01:48:48.236Z,80.76
2023-01-09T01:48:58.465Z,80.76
2023-01-09T01:49:08.692Z,80.76
2023-01-09T01:49:18.941Z,80.76
2023-01-09T01:49:29.198Z,80.76
2023-01-09T01:49:39.427Z,80.76
2023-01-09T01:49:49.700Z,80.76
2023-01-09T01:49:59.922Z,80.76
2023-01-09T01:50:10.153Z,80.76
2023-01-09T01:50:20.388Z,80.76
2023-01-09T01:50:30.612Z,80.66
2023-01-09T01:50:40.857Z,80.66
2023-01-09T01:50:51.131Z,80.66
2023-01-09T01:51:01.374Z,80.66
2023-01-09T01:51:11.605Z,80.66
2023-01-09T01:51:21.854Z,80.66
2023-01-09T01:51:32.078Z,80.66
2023-01-09T01:51:42.334Z,80.66
2023-01-09T01:51:52.560Z,80.66
2023-01-09T01:52:02.807Z,80.66
2023-01-09T01:52:13.036Z,80.66
2023-01-09T01:52:23.289Z,80.66
2023-01-09T01:52:33.522Z,80.66
2023-01-09T01:52:43.767Z,80.66
2023-01-09T01:52:54.024Z,80.66
2023-01-09T01:53:04.256Z,80.66
2023-01-09T01:53:14.488Z,80.66
2023-01-09T01:53:24.733Z,80.66
2023-01-09T01:53:34.973Z,80.66
2023-01-09T01:53:45.221Z,80.66
2023-01-09T01:53:55.452Z,80.66
2023-01-09T01:54:05.704Z,80.66
2023-01-09T01:54:15.949Z,80.56
2023-01-09T01:54:26.179Z,80.66
2023-01-09T01:54:36.462Z,80.56
2023-01-09T01:54:46.682Z,80.56
2023-01-09T01:54:56.918Z,80.56
2023-01-09T01:55:07.174Z,80.56
2023-01-09T01:55:17.410Z,80.56
2023-01-09T01:55:27.637Z,80.56
2023-01-09T01:55:37.873Z,80.56
2023-01-09T01:55:48.110Z,80.56
2023-01-09T01:55:58.361Z,80.56
2023-01-09T01:56:08.602Z,80.56
2023-01-09T01:56:18.862Z,80.56
2023-01-09T01:56:29.083Z,80.46
2023-01-09T01:56:39.343Z,80.46
2023-01-09T01:56:49.564Z,80.46
2023-01-09T01:56:59.822Z,80.46
2023-01-09T01:57:10.073Z,80.46
2023-01-09T01:57:20.299Z,80.46
2023-01-09T01:57:30.541Z,80.46
2023-01-09T01:57:40.789Z,80.46
2023-01-09T01:57:51.031Z,80.46
2023-01-09T01:58:01.316Z,80.46
2023-01-09T01:58:11.554Z,80.46
2023-01-09T01:58:21.804Z,80.46
2023-01-09T01:58:32.029Z,80.46
2023-01-09T01:58:42.272Z,80.46
2023-01-09T01:58:52.521Z,80.46
2023-01-09T01:59:02.761Z,80.35
2023-01-09T01:59:12.984Z,80.46
2023-01-09T01:59:23.244Z,80.35
2023-01-09T01:59:33.500Z,80.35
2023-01-09T01:59:43.725Z,80.35
2023-01-09T01:59:53.964Z,80.35
2023-01-09T02:00:04.202Z,80.46
2023-01-09T02:00:14.472Z,80.35
2023-01-09T02:00:24.700Z,80.35
2023-01-09T02:00:34.948Z,80.35
2023-01-09T02:00:45.198Z,80.35
2023-01-09T02:00:55.563Z,80.35
2023-01-09T02:01:05.985Z,80.35
2023-01-09T02:01:16.339Z,80.35
2023-01-09T02:01:26.772Z,80.35
2023-01-09T02:01:36.990Z,80.35
2023-01-09T02:01:47.188Z,80.35
2023-01-09T02:01:57.613Z,80.35
2023-01-09T02:02:07.996Z,80.35
2023-01-09T02:02:18.280Z,80.35
2023-01-09T02:02:28.505Z,80.35
2023-01-09T02:02:38.733Z,80.35
2023-01-09T02:02:48.989Z,80.35
2023-01-09T02:02:59.245Z,80.35
2023-01-09T02:03:09.482Z,80.35
2023-01-09T02:03:19.755Z,80.25
2023-01-09T02:03:29.977Z,80.25
2023-01-09T02:03:40.254Z,80.25
2023-01-09T02:03:50.475Z,80.25
2023-01-09T02:04:00.690Z,80.25
2023-01-09T02:04:10.953Z,80.25
2023-01-09T02:04:21.209Z,80.25
2023-01-09T02:04:31.427Z,80.25
2023-01-09T02:04:41.685Z,80.25
2023-01-09T02:04:51.923Z,80.25
2023-01-09T02:05:02.172Z,80.25
2023-01-09T02:05:12.400Z,80.15
2023-01-09T02:05:22.671Z,80.15
2023-01-09T02:05:32.885Z,80.15
2023-01-09T02:05:43.145Z,80.15
2023-01-09T02:05:53.399Z,80.15
2023-01-09T02:06:03.634Z,80.15
2023-01-09T02:06:13.899Z,80.15
2023-01-09T02:06:24.144Z,80.18
2023-01-09T02:06:34.382Z,80.15
2023-01-09T02:06:44.612Z,80.18
2023-01-09T02:06:54.858Z,80.15
2023-01-09T02:07:05.096Z,80.15
2023-01-09T02:07:15.324Z,80.18
2023-01-09T02:07:25.564Z,80.18
2023-01-09T02:07:35.793Z,80.08
2023-01-09T02:07:46.039Z,80.04
2023-01-09T02:07:56.279Z,80.08
2023-01-09T02:08:06.520Z,80.08
2023-01-09T02:08:16.767Z,80.08
2023-01-09T02:08:26.989Z,80.08
2023-01-09T02:08:37.253Z,80.08
2023-01-09T02:08:47.473Z,80.08
2023-01-09T02:08:57.705Z,80.08
2023-01-09T02:09:07.953Z,80.08
2023-01-09T02:09:18.203Z,80.08
2023-01-09T02:09:28.432Z,79.97
2023-01-09T02:09:38.723Z,79.97
2023-01-09T02:09:48.951Z,79.97
2023-01-09T02:09:59.176Z,79.97
2023-01-09T02:10:09.421Z,79.97
2023-01-09T02:10:19.660Z,79.97
2023-01-09T02:10:29.922Z,79.97
2023-01-09T02:10:40.174Z,79.97
2023-01-09T02:10:50.417Z,79.97
2023-01-09T02:11:00.671Z,79.97
2023-01-09T02:11:10.926Z,79.97
2023-01-09T02:11:21.155Z,79.97
2023-01-09T02:11:31.413Z,79.97
2023-01-09T02:11:41.632Z,79.97
2023-01-09T02:11:51.885Z,79.97